sensor_id;sensor_type;location;lat;lon;timestamp;pressure;altitude;pressure_sealevel;temperature;humidity
10470;BME280;5282;47.052;15.458;2023-03-16T00:01:44;97718.34;;;2.45;62.16
10470;BME280;5282;47.052;15.458;2023-03-16T00:04:11;97723.16;;;2.64;62.56
10470;BME280;5282;47.052;15.458;2023-03-16T00:06:38;97718.81;;;2.63;63.54
10470;BME280;5282;47.052;15.458;2023-03-16T00:09:05;97724.34;;;2.60;64.13
10470;BME280;5282;47.052;15.458;2023-03-16T00:11:34;97726.91;;;2.61;63.64
10470;BME280;5282;47.052;15.458;2023-03-16T00:14:01;97730.63;;;2.59;64.27
10470;BME280;5282;47.052;15.458;2023-03-16T00:16:33;97729.31;;;2.40;64.88
10470;BME280;5282;47.052;15.458;2023-03-16T00:19:00;97733.63;;;2.54;66.08
10470;BME280;5282;47.052;15.458;2023-03-16T00:21:30;97739.66;;;2.56;66.17
10470;BME280;5282;47.052;15.458;2023-03-16T00:23:59;97732.09;;;2.39;66.53
10470;BME280;5282;47.052;15.458;2023-03-16T00:26:28;97733.22;;;2.47;68.31
10470;BME280;5282;47.052;15.458;2023-03-16T00:28:54;97728.63;;;2.50;68.72
10470;BME280;5282;47.052;15.458;2023-03-16T00:31:25;97732.31;;;2.60;68.09
10470;BME280;5282;47.052;15.458;2023-03-16T00:33:53;97727.81;;;2.36;73.40
10470;BME280;5282;47.052;15.458;2023-03-16T00:36:20;97737.78;;;2.08;72.12
10470;BME280;5282;47.052;15.458;2023-03-16T00:38:47;97744.59;;;2.12;73.57
10470;BME280;5282;47.052;15.458;2023-03-16T00:41:15;97754.09;;;2.28;69.42
10470;BME280;5282;47.052;15.458;2023-03-16T00:43:43;97748.59;;;2.31;70.13
10470;BME280;5282;47.052;15.458;2023-03-16T00:46:13;97747.72;;;2.30;69.20
10470;BME280;5282;47.052;15.458;2023-03-16T00:48:43;97753.06;;;2.18;69.60
10470;BME280;5282;47.052;15.458;2023-03-16T00:51:13;97757.69;;;2.03;70.37
10470;BME280;5282;47.052;15.458;2023-03-16T00:53:42;97761.09;;;1.53;76.33
10470;BME280;5282;47.052;15.458;2023-03-16T00:56:10;97760.47;;;1.75;75.25
10470;BME280;5282;47.052;15.458;2023-03-16T00:58:39;97754.50;;;1.59;78.42
10470;BME280;5282;47.052;15.458;2023-03-16T01:01:12;97755.13;;;1.62;79.05
10470;BME280;5282;47.052;15.458;2023-03-16T01:03:40;97758.75;;;1.74;78.05
10470;BME280;5282;47.052;15.458;2023-03-16T01:06:10;97758.75;;;1.74;77.97
10470;BME280;5282;47.052;15.458;2023-03-16T01:08:39;97762.03;;;1.78;78.99
10470;BME280;5282;47.052;15.458;2023-03-16T01:11:08;97762.47;;;1.59;83.98
10470;BME280;5282;47.052;15.458;2023-03-16T01:13:36;97761.41;;;1.61;81.51
10470;BME280;5282;47.052;15.458;2023-03-16T01:16:04;97755.44;;;1.58;82.51
10470;BME280;5282;47.052;15.458;2023-03-16T01:18:32;97765.63;;;1.25;85.59
10470;BME280;5282;47.052;15.458;2023-03-16T01:21:00;97775.16;;;0.87;89.90
10470;BME280;5282;47.052;15.458;2023-03-16T01:23:28;97758.66;;;0.97;91.18
10470;BME280;5282;47.052;15.458;2023-03-16T01:25:57;97766.53;;;1.11;87.85
10470;BME280;5282;47.052;15.458;2023-03-16T01:28:26;97766.66;;;1.10;91.18
10470;BME280;5282;47.052;15.458;2023-03-16T01:30:54;97761.16;;;1.26;89.89
10470;BME280;5282;47.052;15.458;2023-03-16T01:33:23;97757.78;;;1.36;88.58
10470;BME280;5282;47.052;15.458;2023-03-16T01:35:51;97762.03;;;1.39;89.05
10470;BME280;5282;47.052;15.458;2023-03-16T01:38:18;97761.09;;;1.40;90.47
10470;BME280;5282;47.052;15.458;2023-03-16T01:40:46;97760.88;;;1.43;90.83
10470;BME280;5282;47.052;15.458;2023-03-16T01:43:17;97761.72;;;1.44;90.16
10470;BME280;5282;47.052;15.458;2023-03-16T01:51:36;97765.63;;;1.38;91.41
10470;BME280;5282;47.052;15.458;2023-03-16T01:54:11;97762.22;;;1.36;92.94
10470;BME280;5282;47.052;15.458;2023-03-16T01:56:43;97768.28;;;1.38;92.33
10470;BME280;5282;47.052;15.458;2023-03-16T01:59:16;97769.25;;;1.50;89.64
10470;BME280;5282;47.052;15.458;2023-03-16T02:01:45;97766.28;;;1.42;89.93
10470;BME280;5282;47.052;15.458;2023-03-16T02:04:23;97773.03;;;1.33;91.13
10470;BME280;5282;47.052;15.458;2023-03-16T02:06:53;97775.94;;;1.30;90.94
10470;BME280;5282;47.052;15.458;2023-03-16T02:09:21;97776.31;;;1.23;92.23
10470;BME280;5282;47.052;15.458;2023-03-16T02:11:50;97785.84;;;1.13;92.32
10470;BME280;5282;47.052;15.458;2023-03-16T02:14:19;97789.69;;;1.22;91.15
10470;BME280;5282;47.052;15.458;2023-03-16T02:16:47;97791.28;;;1.12;92.30
10470;BME280;5282;47.052;15.458;2023-03-16T02:19:22;97788.50;;;1.13;92.05
10470;BME280;5282;47.052;15.458;2023-03-16T02:21:56;97796.88;;;1.07;91.76
10470;BME280;5282;47.052;15.458;2023-03-16T02:24:27;97797.28;;;0.73;94.80
10470;BME280;5282;47.052;15.458;2023-03-16T02:26:56;97795.19;;;0.79;94.25
10470;BME280;5282;47.052;15.458;2023-03-16T02:32:20;97796.38;;;0.60;99.08
10470;BME280;5282;47.052;15.458;2023-03-16T02:34:47;97807.69;;;0.35;100.00
10470;BME280;5282;47.052;15.458;2023-03-16T02:37:14;97805.97;;;0.48;100.00
10470;BME280;5282;47.052;15.458;2023-03-16T02:39:41;97802.56;;;0.73;100.00
10470;BME280;5282;47.052;15.458;2023-03-16T02:42:12;97804.59;;;0.55;100.00
10470;BME280;5282;47.052;15.458;2023-03-16T02:44:40;97811.16;;;0.35;100.00
10470;BME280;5282;47.052;15.458;2023-03-16T02:47:13;97806.44;;;0.40;100.00
10470;BME280;5282;47.052;15.458;2023-03-16T02:49:44;97810.84;;;0.54;100.00
10470;BME280;5282;47.052;15.458;2023-03-16T02:52:14;97808.34;;;0.38;100.00
10470;BME280;5282;47.052;15.458;2023-03-16T02:54:41;97812.22;;;0.18;100.00
10470;BME280;5282;47.052;15.458;2023-03-16T02:57:08;97814.41;;;-0.18;100.00
10470;BME280;5282;47.052;15.458;2023-03-16T02:59:35;97815.63;;;0.20;100.00
10470;BME280;5282;47.052;15.458;2023-03-16T03:02:02;97820.38;;;0.01;100.00
10470;BME280;5282;47.052;15.458;2023-03-16T03:04:29;97820.06;;;-0.09;100.00
10470;BME280;5282;47.052;15.458;2023-03-16T03:06:59;97823.88;;;-0.13;100.00
10470;BME280;5282;47.052;15.458;2023-03-16T03:09:30;97827.38;;;0.02;100.00
10470;BME280;5282;47.052;15.458;2023-03-16T03:11:58;97830.88;;;0.17;100.00
10470;BME280;5282;47.052;15.458;2023-03-16T03:14:25;97826.88;;;0.24;100.00
10470;BME280;5282;47.052;15.458;2023-03-16T03:16:53;97828.13;;;0.04;100.00
10470;BME280;5282;47.052;15.458;2023-03-16T03:19:21;97839.00;;;-0.01;100.00
10470;BME280;5282;47.052;15.458;2023-03-16T03:21:50;97835.31;;;0.02;100.00
10470;BME280;5282;47.052;15.458;2023-03-16T03:24:23;97840.63;;;0.16;100.00
10470;BME280;5282;47.052;15.458;2023-03-16T03:26:53;97837.22;;;0.28;100.00
10470;BME280;5282;47.052;15.458;2023-03-16T03:29:20;97844.19;;;0.01;100.00
10470;BME280;5282;47.052;15.458;2023-03-16T03:31:47;97845.16;;;-0.01;100.00
10470;BME280;5282;47.052;15.458;2023-03-16T03:34:14;97848.75;;;-0.02;100.00
10470;BME280;5282;47.052;15.458;2023-03-16T03:36:41;97845.53;;;0.08;100.00
10470;BME280;5282;47.052;15.458;2023-03-16T03:39:08;97851.19;;;0.02;100.00
10470;BME280;5282;47.052;15.458;2023-03-16T03:41:39;97849.88;;;0.09;100.00
10470;BME280;5282;47.052;15.458;2023-03-16T03:44:07;97865.97;;;0.06;100.00
10470;BME280;5282;47.052;15.458;2023-03-16T03:46:34;97864.16;;;0.21;100.00
10470;BME280;5282;47.052;15.458;2023-03-16T03:49:01;97868.88;;;0.15;100.00
10470;BME280;5282;47.052;15.458;2023-03-16T03:51:30;97862.56;;;0.04;100.00
10470;BME280;5282;47.052;15.458;2023-03-16T03:53:57;97873.53;;;0.12;100.00
10470;BME280;5282;47.052;15.458;2023-03-16T03:56:24;97870.88;;;0.12;100.00
10470;BME280;5282;47.052;15.458;2023-03-16T03:58:54;97869.00;;;0.14;100.00
10470;BME280;5282;47.052;15.458;2023-03-16T04:01:21;97872.41;;;0.16;100.00
10470;BME280;5282;47.052;15.458;2023-03-16T04:03:48;97882.41;;;0.11;100.00
10470;BME280;5282;47.052;15.458;2023-03-16T04:06:14;97877.88;;;0.13;100.00
10470;BME280;5282;47.052;15.458;2023-03-16T04:08:41;97881.47;;;0.12;100.00
10470;BME280;5282;47.052;15.458;2023-03-16T04:11:11;97888.47;;;0.13;100.00
10470;BME280;5282;47.052;15.458;2023-03-16T04:13:38;97883.53;;;0.21;100.00
10470;BME280;5282;47.052;15.458;2023-03-16T04:16:08;97881.28;;;0.15;100.00
10470;BME280;5282;47.052;15.458;2023-03-16T04:18:35;97889.69;;;0.07;100.00
10470;BME280;5282;47.052;15.458;2023-03-16T04:21:04;97892.25;;;0.09;100.00
10470;BME280;5282;47.052;15.458;2023-03-16T04:23:32;97898.47;;;0.08;100.00
10470;BME280;5282;47.052;15.458;2023-03-16T04:25:59;97907.00;;;0.13;100.00
10470;BME280;5282;47.052;15.458;2023-03-16T04:28:29;97896.97;;;0.04;100.00
10470;BME280;5282;47.052;15.458;2023-03-16T04:31:00;97904.50;;;-0.05;100.00
10470;BME280;5282;47.052;15.458;2023-03-16T04:33:29;97907.91;;;-0.03;100.00
10470;BME280;5282;47.052;15.458;2023-03-16T04:35:59;97905.28;;;-0.03;100.00
10470;BME280;5282;47.052;15.458;2023-03-16T04:38:29;97911.72;;;-0.07;100.00
10470;BME280;5282;47.052;15.458;2023-03-16T04:40:58;97912.25;;;-0.16;100.00
10470;BME280;5282;47.052;15.458;2023-03-16T04:43:25;97914.31;;;-0.21;100.00
10470;BME280;5282;47.052;15.458;2023-03-16T04:45:52;97920.91;;;-0.28;100.00
10470;BME280;5282;47.052;15.458;2023-03-16T04:48:20;97925.84;;;-0.22;100.00
10470;BME280;5282;47.052;15.458;2023-03-16T04:50:48;97919.16;;;-0.13;100.00
10470;BME280;5282;47.052;15.458;2023-03-16T04:53:16;97926.16;;;-0.12;100.00
10470;BME280;5282;47.052;15.458;2023-03-16T04:55:44;97932.53;;;-0.31;100.00
10470;BME280;5282;47.052;15.458;2023-03-16T04:58:12;97934.34;;;-0.17;100.00
10470;BME280;5282;47.052;15.458;2023-03-16T05:00:39;97933.38;;;-0.30;100.00
10470;BME280;5282;47.052;15.458;2023-03-16T05:03:07;97938.84;;;-0.34;100.00
10470;BME280;5282;47.052;15.458;2023-03-16T05:05:34;97944.59;;;-0.41;100.00
10470;BME280;5282;47.052;15.458;2023-03-16T05:08:03;97944.31;;;-0.37;100.00
10470;BME280;5282;47.052;15.458;2023-03-16T05:10:31;97946.19;;;-0.39;100.00
10470;BME280;5282;47.052;15.458;2023-03-16T05:12:59;97945.84;;;-0.33;100.00
10470;BME280;5282;47.052;15.458;2023-03-16T05:15:26;97945.84;;;-0.02;100.00
10470;BME280;5282;47.052;15.458;2023-03-16T05:17:53;97944.16;;;-0.03;100.00
10470;BME280;5282;47.052;15.458;2023-03-16T05:20:21;97949.63;;;-0.06;100.00
10470;BME280;5282;47.052;15.458;2023-03-16T05:22:48;97950.66;;;-0.09;100.00
10470;BME280;5282;47.052;15.458;2023-03-16T05:25:17;97960.19;;;-0.06;100.00
10470;BME280;5282;47.052;15.458;2023-03-16T05:27:48;97965.41;;;-0.05;100.00
10470;BME280;5282;47.052;15.458;2023-03-16T05:30:17;97969.75;;;-0.04;100.00
10470;BME280;5282;47.052;15.458;2023-03-16T05:32:46;97965.31;;;-0.03;100.00
10470;BME280;5282;47.052;15.458;2023-03-16T05:35:14;97969.19;;;-0.09;100.00
10470;BME280;5282;47.052;15.458;2023-03-16T05:37:41;97960.25;;;0.08;100.00
10470;BME280;5282;47.052;15.458;2023-03-16T05:40:10;97960.25;;;0.08;100.00
10470;BME280;5282;47.052;15.458;2023-03-16T05:42:44;97965.81;;;0.18;100.00
10470;BME280;5282;47.052;15.458;2023-03-16T05:45:11;97965.28;;;0.27;100.00
10470;BME280;5282;47.052;15.458;2023-03-16T05:47:39;97957.06;;;0.32;100.00
10470;BME280;5282;47.052;15.458;2023-03-16T05:50:09;97967.38;;;0.37;100.00
10470;BME280;5282;47.052;15.458;2023-03-16T05:52:37;97966.22;;;0.41;100.00
10470;BME280;5282;47.052;15.458;2023-03-16T05:55:04;97964.75;;;0.51;100.00
10470;BME280;5282;47.052;15.458;2023-03-16T05:57:32;97961.59;;;0.59;100.00
10470;BME280;5282;47.052;15.458;2023-03-16T06:00:02;97956.41;;;0.57;100.00
10470;BME280;5282;47.052;15.458;2023-03-16T06:02:36;97961.91;;;0.69;100.00
10470;BME280;5282;47.052;15.458;2023-03-16T06:05:03;97968.44;;;0.77;100.00
10470;BME280;5282;47.052;15.458;2023-03-16T06:07:33;97972.28;;;0.86;100.00
10470;BME280;5282;47.052;15.458;2023-03-16T06:10:00;97977.81;;;0.98;100.00
10470;BME280;5282;47.052;15.458;2023-03-16T06:12:28;97979.66;;;1.10;100.00
10470;BME280;5282;47.052;15.458;2023-03-16T06:14:55;97982.03;;;1.15;100.00
10470;BME280;5282;47.052;15.458;2023-03-16T06:17:23;97986.00;;;1.22;99.72
10470;BME280;5282;47.052;15.458;2023-03-16T06:19:50;97993.66;;;1.27;99.11
10470;BME280;5282;47.052;15.458;2023-03-16T06:22:19;97998.06;;;1.41;97.36
10470;BME280;5282;47.052;15.458;2023-03-16T06:24:46;98000.72;;;1.41;96.31
10470;BME280;5282;47.052;15.458;2023-03-16T06:27:13;98006.41;;;1.49;96.35
10470;BME280;5282;47.052;15.458;2023-03-16T06:29:40;98012.91;;;1.58;94.10
10470;BME280;5282;47.052;15.458;2023-03-16T06:32:07;98015.19;;;1.64;94.06
10470;BME280;5282;47.052;15.458;2023-03-16T06:34:35;98011.06;;;1.73;93.48
10470;BME280;5282;47.052;15.458;2023-03-16T06:37:03;98010.38;;;1.83;93.14
10470;BME280;5282;47.052;15.458;2023-03-16T06:39:30;98012.31;;;1.94;92.34
10470;BME280;5282;47.052;15.458;2023-03-16T06:41:57;98011.78;;;2.02;92.21
10470;BME280;5282;47.052;15.458;2023-03-16T06:44:24;98013.94;;;2.10;92.32
10470;BME280;5282;47.052;15.458;2023-03-16T06:46:51;98014.00;;;2.23;91.51
10470;BME280;5282;47.052;15.458;2023-03-16T06:49:18;98018.03;;;2.28;91.25
10470;BME280;5282;47.052;15.458;2023-03-16T06:51:47;98023.16;;;2.44;89.04
10470;BME280;5282;47.052;15.458;2023-03-16T06:54:14;98018.38;;;2.50;90.00
10470;BME280;5282;47.052;15.458;2023-03-16T06:56:41;98028.16;;;2.62;86.65
10470;BME280;5282;47.052;15.458;2023-03-16T06:59:08;98022.75;;;2.64;88.00
10470;BME280;5282;47.052;15.458;2023-03-16T07:01:35;98021.06;;;2.62;88.90
10470;BME280;5282;47.052;15.458;2023-03-16T07:04:02;98021.38;;;2.71;87.36
10470;BME280;5282;47.052;15.458;2023-03-16T07:06:29;98026.16;;;2.78;85.73
10470;BME280;5282;47.052;15.458;2023-03-16T07:08:58;98028.38;;;2.85;84.43
10470;BME280;5282;47.052;15.458;2023-03-16T07:11:26;98030.50;;;2.92;81.85
10470;BME280;5282;47.052;15.458;2023-03-16T07:13:52;98033.91;;;3.07;81.37
10470;BME280;5282;47.052;15.458;2023-03-16T07:16:19;98036.16;;;2.88;79.14
10470;BME280;5282;47.052;15.458;2023-03-16T07:18:47;98034.56;;;2.98;78.64
10470;BME280;5282;47.052;15.458;2023-03-16T07:21:14;98035.06;;;2.90;71.00
10470;BME280;5282;47.052;15.458;2023-03-16T07:23:41;98034.34;;;3.01;65.64
10470;BME280;5282;47.052;15.458;2023-03-16T07:26:10;98031.88;;;2.98;66.14
10470;BME280;5282;47.052;15.458;2023-03-16T07:28:38;98031.78;;;3.13;66.56
10470;BME280;5282;47.052;15.458;2023-03-16T07:31:06;98025.91;;;3.20;64.67
10470;BME280;5282;47.052;15.458;2023-03-16T07:33:34;98025.25;;;3.17;62.94
10470;BME280;5282;47.052;15.458;2023-03-16T07:36:02;98020.75;;;3.30;63.78
10470;BME280;5282;47.052;15.458;2023-03-16T07:38:30;98021.31;;;3.22;62.29
10470;BME280;5282;47.052;15.458;2023-03-16T07:40:58;98022.28;;;3.21;62.06
10470;BME280;5282;47.052;15.458;2023-03-16T07:43:27;98028.50;;;3.46;62.16
10470;BME280;5282;47.052;15.458;2023-03-16T07:45:54;98027.53;;;3.60;60.78
10470;BME280;5282;47.052;15.458;2023-03-16T07:48:21;98021.69;;;3.79;59.23
10470;BME280;5282;47.052;15.458;2023-03-16T07:50:49;98023.75;;;4.00;57.95
10470;BME280;5282;47.052;15.458;2023-03-16T07:53:16;98025.25;;;4.15;58.20
10470;BME280;5282;47.052;15.458;2023-03-16T07:55:44;98026.38;;;4.24;58.01
10470;BME280;5282;47.052;15.458;2023-03-16T07:58:11;98030.44;;;4.41;56.85
10470;BME280;5282;47.052;15.458;2023-03-16T08:00:40;98026.25;;;4.61;56.75
10470;BME280;5282;47.052;15.458;2023-03-16T08:03:09;98036.59;;;4.30;53.00
10470;BME280;5282;47.052;15.458;2023-03-16T08:05:36;98034.09;;;4.16;52.69
10470;BME280;5282;47.052;15.458;2023-03-16T08:08:04;98038.00;;;4.23;53.93
10470;BME280;5282;47.052;15.458;2023-03-16T08:10:34;98040.50;;;4.49;54.48
10470;BME280;5282;47.052;15.458;2023-03-16T08:13:01;98034.88;;;4.76;53.81
10470;BME280;5282;47.052;15.458;2023-03-16T08:15:29;98025.09;;;5.11;53.22
10470;BME280;5282;47.052;15.458;2023-03-16T08:18:02;98032.84;;;5.03;50.82
10470;BME280;5282;47.052;15.458;2023-03-16T08:20:30;98039.47;;;4.74;51.06
10470;BME280;5282;47.052;15.458;2023-03-16T08:22:57;98025.34;;;5.08;51.21
10470;BME280;5282;47.052;15.458;2023-03-16T08:25:24;98025.69;;;5.49;50.08
10470;BME280;5282;47.052;15.458;2023-03-16T08:27:51;98033.91;;;5.57;49.38
10470;BME280;5282;47.052;15.458;2023-03-16T08:30:18;98031.94;;;5.70;48.77
10470;BME280;5282;47.052;15.458;2023-03-16T08:32:47;98033.50;;;5.84;48.26
10470;BME280;5282;47.052;15.458;2023-03-16T08:35:16;98033.13;;;5.89;47.79
10470;BME280;5282;47.052;15.458;2023-03-16T08:37:43;98040.28;;;6.00;46.19
10470;BME280;5282;47.052;15.458;2023-03-16T08:40:11;98043.34;;;6.28;46.30
10470;BME280;5282;47.052;15.458;2023-03-16T08:42:41;98040.31;;;6.32;44.90
10470;BME280;5282;47.052;15.458;2023-03-16T08:45:10;98045.13;;;6.06;44.24
10470;BME280;5282;47.052;15.458;2023-03-16T08:47:38;98041.81;;;6.14;44.19
10470;BME280;5282;47.052;15.458;2023-03-16T08:50:06;98039.63;;;6.19;43.49
10470;BME280;5282;47.052;15.458;2023-03-16T08:52:35;98035.13;;;6.20;42.63
10470;BME280;5282;47.052;15.458;2023-03-16T08:55:03;98035.53;;;6.36;43.02
10470;BME280;5282;47.052;15.458;2023-03-16T08:57:31;98033.53;;;6.50;42.83
10470;BME280;5282;47.052;15.458;2023-03-16T08:59:59;98040.44;;;6.52;42.54
10470;BME280;5282;47.052;15.458;2023-03-16T09:02:26;98041.47;;;6.82;42.68
10470;BME280;5282;47.052;15.458;2023-03-16T09:04:53;98041.44;;;6.72;39.71
10470;BME280;5282;47.052;15.458;2023-03-16T09:07:20;98043.91;;;6.64;39.80
10470;BME280;5282;47.052;15.458;2023-03-16T09:09:50;98040.19;;;6.98;39.73
10470;BME280;5282;47.052;15.458;2023-03-16T09:12:17;98040.31;;;6.75;38.68
10470;BME280;5282;47.052;15.458;2023-03-16T09:14:45;98040.75;;;6.80;39.36
10470;BME280;5282;47.052;15.458;2023-03-16T09:17:13;98044.53;;;6.56;39.92
10470;BME280;5282;47.052;15.458;2023-03-16T09:19:40;98048.13;;;6.88;40.27
10470;BME280;5282;47.052;15.458;2023-03-16T09:22:07;98050.88;;;6.98;41.01
10470;BME280;5282;47.052;15.458;2023-03-16T09:24:34;98051.34;;;7.34;40.29
10470;BME280;5282;47.052;15.458;2023-03-16T09:27:03;98043.22;;;7.45;36.85
10470;BME280;5282;47.052;15.458;2023-03-16T09:29:30;98046.06;;;7.53;37.44
10470;BME280;5282;47.052;15.458;2023-03-16T09:32:00;98048.25;;;7.79;36.02
10470;BME280;5282;47.052;15.458;2023-03-16T09:34:28;98038.84;;;7.54;33.20
10470;BME280;5282;47.052;15.458;2023-03-16T09:36:55;98045.50;;;7.19;34.05
10470;BME280;5282;47.052;15.458;2023-03-16T09:39:22;98043.22;;;7.55;34.53
10470;BME280;5282;47.052;15.458;2023-03-16T09:41:53;98052.25;;;6.92;34.79
10470;BME280;5282;47.052;15.458;2023-03-16T09:44:30;98059.84;;;6.66;33.73
10470;BME280;5282;47.052;15.458;2023-03-16T09:47:00;98052.00;;;6.95;33.84
10470;BME280;5282;47.052;15.458;2023-03-16T09:49:33;98062.53;;;7.49;35.56
10470;BME280;5282;47.052;15.458;2023-03-16T09:52:07;98059.59;;;8.02;36.88
10470;BME280;5282;47.052;15.458;2023-03-16T09:54:44;98053.53;;;8.10;34.80
10470;BME280;5282;47.052;15.458;2023-03-16T09:57:24;98058.09;;;8.49;35.21
10470;BME280;5282;47.052;15.458;2023-03-16T09:59:54;98048.59;;;8.74;34.73
10470;BME280;5282;47.052;15.458;2023-03-16T10:02:41;98047.66;;;8.66;34.45
10470;BME280;5282;47.052;15.458;2023-03-16T10:05:12;98046.34;;;8.89;34.29
10470;BME280;5282;47.052;15.458;2023-03-16T10:07:46;98047.22;;;8.70;33.43
10470;BME280;5282;47.052;15.458;2023-03-16T10:10:26;98047.84;;;9.11;34.10
10470;BME280;5282;47.052;15.458;2023-03-16T10:12:58;98051.66;;;9.09;33.05
10470;BME280;5282;47.052;15.458;2023-03-16T10:15:34;98038.84;;;8.83;30.97
10470;BME280;5282;47.052;15.458;2023-03-16T10:18:04;98045.50;;;9.26;30.66
10470;BME280;5282;47.052;15.458;2023-03-16T10:20:35;98045.47;;;9.46;30.97
10470;BME280;5282;47.052;15.458;2023-03-16T10:23:12;98053.09;;;9.51;33.04
10470;BME280;5282;47.052;15.458;2023-03-16T10:25:45;98056.28;;;10.10;29.58
10470;BME280;5282;47.052;15.458;2023-03-16T10:28:14;98053.13;;;10.61;27.87
10470;BME280;5282;47.052;15.458;2023-03-16T10:30:43;98051.59;;;10.58;27.87
10470;BME280;5282;47.052;15.458;2023-03-16T10:33:18;98037.56;;;10.99;29.24
10470;BME280;5282;47.052;15.458;2023-03-16T10:35:51;98031.34;;;11.25;29.50
10470;BME280;5282;47.052;15.458;2023-03-16T10:38:27;98047.19;;;10.75;26.13
10470;BME280;5282;47.052;15.458;2023-03-16T10:40:55;98054.56;;;10.37;28.89
10470;BME280;5282;47.052;15.458;2023-03-16T10:43:23;98048.06;;;11.10;29.27
10470;BME280;5282;47.052;15.458;2023-03-16T10:45:57;98051.09;;;10.81;28.16
10470;BME280;5282;47.052;15.458;2023-03-16T10:48:25;98057.41;;;9.62;29.30
10470;BME280;5282;47.052;15.458;2023-03-16T10:50:54;98046.59;;;10.90;28.95
10470;BME280;5282;47.052;15.458;2023-03-16T10:53:25;98043.91;;;11.42;29.04
10470;BME280;5282;47.052;15.458;2023-03-16T10:55:56;98051.25;;;10.79;27.38
10470;BME280;5282;47.052;15.458;2023-03-16T10:58:28;98038.00;;;10.86;28.04
10470;BME280;5282;47.052;15.458;2023-03-16T11:00:56;98055.28;;;10.11;27.47
10470;BME280;5282;47.052;15.458;2023-03-16T11:03:26;98043.94;;;10.72;29.42
10470;BME280;5282;47.052;15.458;2023-03-16T11:05:58;98043.94;;;10.54;27.21
10470;BME280;5282;47.052;15.458;2023-03-16T11:08:30;98044.16;;;10.78;27.47
10470;BME280;5282;47.052;15.458;2023-03-16T11:10:58;98044.75;;;11.17;27.18
10470;BME280;5282;47.052;15.458;2023-03-16T11:13:31;98034.25;;;11.66;25.95
10470;BME280;5282;47.052;15.458;2023-03-16T11:16:02;98043.06;;;10.89;25.12
10470;BME280;5282;47.052;15.458;2023-03-16T11:18:35;98046.28;;;10.48;25.88
10470;BME280;5282;47.052;15.458;2023-03-16T11:21:10;98042.78;;;10.20;25.08
10470;BME280;5282;47.052;15.458;2023-03-16T11:23:45;98041.59;;;10.04;26.06
10470;BME280;5282;47.052;15.458;2023-03-16T11:26:18;98025.13;;;10.98;26.85
10470;BME280;5282;47.052;15.458;2023-03-16T11:28:50;98029.31;;;11.27;25.50
10470;BME280;5282;47.052;15.458;2023-03-16T11:31:24;98016.88;;;12.20;24.95
10470;BME280;5282;47.052;15.458;2023-03-16T11:33:54;98025.88;;;12.70;23.97
10470;BME280;5282;47.052;15.458;2023-03-16T11:36:34;98024.31;;;12.84;24.76
10470;BME280;5282;47.052;15.458;2023-03-16T11:39:09;98022.56;;;13.33;23.87
10470;BME280;5282;47.052;15.458;2023-03-16T11:41:48;98022.03;;;13.37;24.18
10470;BME280;5282;47.052;15.458;2023-03-16T11:44:24;98014.19;;;12.94;24.42
10470;BME280;5282;47.052;15.458;2023-03-16T11:47:00;98019.38;;;13.29;24.06
10470;BME280;5282;47.052;15.458;2023-03-16T11:49:41;98020.13;;;12.48;23.88
10470;BME280;5282;47.052;15.458;2023-03-16T11:52:15;98012.28;;;13.20;23.06
10470;BME280;5282;47.052;15.458;2023-03-16T11:54:54;98013.28;;;13.27;25.44
10470;BME280;5282;47.052;15.458;2023-03-16T11:57:32;98004.34;;;13.75;23.21
10470;BME280;5282;47.052;15.458;2023-03-16T12:00:18;98007.00;;;13.43;21.17
10470;BME280;5282;47.052;15.458;2023-03-16T12:03:05;97998.38;;;13.48;22.31
10470;BME280;5282;47.052;15.458;2023-03-16T12:05:57;97992.59;;;13.91;22.14
10470;BME280;5282;47.052;15.458;2023-03-16T12:08:42;97991.91;;;12.84;21.50
10470;BME280;5282;47.052;15.458;2023-03-16T12:11:18;97992.63;;;12.70;22.07
10470;BME280;5282;47.052;15.458;2023-03-16T12:13:58;97986.03;;;12.47;23.09
10470;BME280;5282;47.052;15.458;2023-03-16T12:16:30;97979.41;;;12.91;21.74
10470;BME280;5282;47.052;15.458;2023-03-16T12:19:02;97986.44;;;13.25;20.73
10470;BME280;5282;47.052;15.458;2023-03-16T12:21:38;97967.00;;;13.70;21.22
10470;BME280;5282;47.052;15.458;2023-03-16T12:24:11;97977.09;;;12.55;21.39
10470;BME280;5282;47.052;15.458;2023-03-16T12:26:41;97977.03;;;12.88;21.26
10470;BME280;5282;47.052;15.458;2023-03-16T12:29:13;97968.34;;;13.74;21.93
10470;BME280;5282;47.052;15.458;2023-03-16T12:31:48;97962.19;;;14.35;21.64
10470;BME280;5282;47.052;15.458;2023-03-16T12:34:25;97960.53;;;14.72;21.37
10470;BME280;5282;47.052;15.458;2023-03-16T12:37:06;97960.28;;;14.59;20.95
10470;BME280;5282;47.052;15.458;2023-03-16T12:39:45;97954.88;;;14.82;20.45
10470;BME280;5282;47.052;15.458;2023-03-16T12:42:25;97956.25;;;14.78;20.42
10470;BME280;5282;47.052;15.458;2023-03-16T12:45:01;97959.59;;;14.18;21.71
10470;BME280;5282;47.052;15.458;2023-03-16T12:47:31;97951.91;;;15.07;21.05
10470;BME280;5282;47.052;15.458;2023-03-16T12:50:05;97954.13;;;15.03;19.87
10470;BME280;5282;47.052;15.458;2023-03-16T12:52:43;97949.66;;;15.10;20.02
10470;BME280;5282;47.052;15.458;2023-03-16T12:55:13;97949.97;;;14.16;20.46
10470;BME280;5282;47.052;15.458;2023-03-16T12:57:41;97947.19;;;14.47;20.80
10470;BME280;5282;47.052;15.458;2023-03-16T13:00:10;97945.41;;;14.16;21.35
10470;BME280;5282;47.052;15.458;2023-03-16T13:02:43;97936.47;;;14.54;20.51
10470;BME280;5282;47.052;15.458;2023-03-16T13:05:13;97936.34;;;14.47;20.57
10470;BME280;5282;47.052;15.458;2023-03-16T13:07:47;97931.50;;;14.58;20.57
10470;BME280;5282;47.052;15.458;2023-03-16T13:10:16;97928.69;;;14.74;20.88
10470;BME280;5282;47.052;15.458;2023-03-16T13:12:46;97925.72;;;15.29;20.52
10470;BME280;5282;47.052;15.458;2023-03-16T13:15:25;97926.44;;;15.53;19.07
10470;BME280;5282;47.052;15.458;2023-03-16T13:18:05;97930.28;;;14.69;19.67
10470;BME280;5282;47.052;15.458;2023-03-16T13:20:53;97922.31;;;14.67;21.31
10470;BME280;5282;47.052;15.458;2023-03-16T13:23:23;97921.97;;;14.47;19.66
10470;BME280;5282;47.052;15.458;2023-03-16T13:26:09;97926.44;;;14.93;19.28
10470;BME280;5282;47.052;15.458;2023-03-16T13:28:39;97917.28;;;15.39;19.86